createdAt,value
2019-04-29T00:01:04.313Z,19.47
2019-04-29T00:06:07.713Z,19.46
2019-04-29T00:11:11.110Z,19.47
2019-04-29T00:16:21.682Z,19.46
2019-04-29T00:21:25.468Z,19.46
2019-04-29T00:26:28.811Z,19.47
2019-04-29T00:31:32.148Z,19.46
2019-04-29T00:36:37.107Z,19.47
2019-04-29T00:41:50.892Z,19.46
2019-04-29T00:46:54.281Z,19.44
2019-04-29T00:51:57.654Z,19.46
2019-04-29T00:57:01.063Z,19.45
2019-04-29T01:02:05.208Z,19.45
2019-04-29T01:07:08.619Z,19.41
2019-04-29T01:12:11.965Z,19.41
2019-04-29T01:17:15.302Z,19.39
2019-04-29T01:22:18.688Z,19.41
2019-04-29T01:27:23.632Z,19.37
2019-04-29T01:32:27.026Z,19.37
2019-04-29T01:37:34.778Z,19.36
2019-04-29T01:42:39.776Z,19.36
2019-04-29T01:47:43.130Z,19.36
2019-04-29T01:52:46.443Z,19.35
2019-04-29T01:57:49.774Z,19.33
2019-04-29T02:02:53.091Z,19.33
2019-04-29T02:07:56.415Z,19.33
2019-04-29T02:12:59.761Z,19.32
2019-04-29T02:18:03.072Z,19.31
2019-04-29T02:23:08.032Z,19.30
2019-04-29T02:28:11.342Z,19.32
2019-04-29T02:33:14.664Z,19.30
2019-04-29T02:43:35.180Z,19.30
2019-04-29T02:48:38.498Z,19.28
2019-04-29T02:53:41.802Z,19.29
2019-04-29T02:58:46.743Z,19.29
2019-04-29T03:03:54.644Z,19.29
2019-04-29T03:08:57.994Z,19.27
2019-04-29T03:14:01.311Z,19.28
2019-04-29T03:19:09.239Z,19.29
2019-04-29T03:24:12.612Z,19.29
2019-04-29T03:29:24.591Z,19.29
2019-04-29T03:34:27.891Z,19.28
2019-04-29T03:39:31.196Z,19.26
2019-04-29T03:44:34.507Z,19.26
2019-04-29T03:49:37.816Z,19.24
2019-04-29T03:54:41.122Z,19.18
2019-04-29T03:59:44.442Z,19.22
2019-04-29T04:04:55.205Z,19.25
2019-04-29T04:09:58.592Z,19.33
2019-04-29T04:15:01.904Z,19.35
2019-04-29T04:20:05.766Z,19.44
2019-04-29T04:25:09.107Z,19.47
2019-04-29T04:30:12.819Z,19.54
2019-04-29T04:35:16.227Z,19.66
2019-04-29T04:40:29.981Z,19.54
2019-04-29T04:45:33.318Z,19.62
2019-04-29T04:50:36.760Z,19.53
2019-04-29T04:55:41.736Z,19.52
2019-04-29T05:00:45.064Z,19.49
2019-04-29T05:05:48.415Z,19.48
2019-04-29T05:10:51.763Z,19.36
2019-04-29T05:15:55.085Z,19.35
2019-04-29T05:20:58.409Z,19.24
2019-04-29T05:26:01.717Z,19.29
2019-04-29T05:31:05.063Z,19.29
2019-04-29T05:36:10.052Z,19.27
2019-04-29T05:41:13.384Z,19.26
2019-04-29T05:46:29.942Z,19.23
2019-04-29T05:51:43.757Z,19.18
2019-04-29T05:56:47.113Z,19.16
2019-04-29T06:01:50.476Z,19.16
2019-04-29T06:06:53.777Z,19.13
2019-04-29T06:11:57.101Z,19.13
2019-04-29T06:17:02.975Z,19.12
2019-04-29T06:22:05.418Z,19.08
2019-04-29T06:27:08.776Z,19.09
2019-04-29T06:32:12.085Z,19.12
2019-04-29T06:37:15.537Z,19.07
2019-04-29T06:42:19.565Z,19.09
2019-04-29T06:47:23.754Z,19.08
2019-04-29T06:52:27.059Z,19.06
2019-04-29T06:57:30.397Z,19.07
2019-04-29T07:02:33.747Z,19.05
2019-04-29T07:07:37.085Z,19.05
2019-04-29T07:12:42.826Z,19.05
2019-04-29T07:17:46.372Z,19.04
2019-04-29T07:22:49.681Z,19.08
2019-04-29T07:27:52.982Z,19.05
2019-04-29T07:32:56.300Z,19.02
2019-04-29T07:37:59.597Z,19.05
2019-04-29T07:43:07.367Z,19.06
2019-04-29T07:48:08.005Z,18.98
2019-04-29T07:53:11.301Z,19.04
2019-04-29T07:58:14.622Z,19.02
2019-04-29T08:03:17.945Z,18.99
2019-04-29T08:08:22.804Z,19.01
2019-04-29T08:13:26.211Z,18.95
2019-04-29T08:18:29.509Z,18.93
2019-04-29T08:23:40.886Z,18.98
2019-04-29T08:28:37.848Z,18.98
2019-04-29T08:33:42.470Z,18.99
2019-04-29T08:38:46.174Z,19.02
2019-04-29T08:43:52.375Z,18.98
2019-04-29T08:48:56.141Z,18.97
2019-04-29T08:53:59.468Z,18.96
2019-04-29T08:59:02.766Z,18.94
2019-04-29T09:04:06.065Z,18.96
2019-04-29T09:09:27.991Z,18.96
2019-04-29T09:14:14.400Z,18.95
2019-04-29T09:19:17.711Z,18.93
2019-04-29T09:24:21.028Z,18.94
2019-04-29T09:29:36.989Z,18.92
2019-04-29T09:34:40.407Z,18.89
2019-04-29T09:39:45.370Z,18.90
2019-04-29T09:45:05.147Z,18.91
2019-04-29T09:50:08.455Z,18.92
2019-04-29T09:55:11.824Z,18.87
2019-04-29T10:00:36.269Z,18.89
2019-04-29T10:05:47.879Z,18.90
2019-04-29T10:10:51.185Z,18.90
2019-04-29T10:16:00.434Z,18.87
2019-04-29T10:21:05.639Z,18.88
2019-04-29T10:26:09.014Z,18.85
2019-04-29T10:31:13.195Z,18.89
2019-04-29T10:36:20.564Z,18.87
2019-04-29T10:41:25.727Z,18.89
2019-04-29T10:46:46.595Z,18.85
2019-04-29T10:51:50.001Z,19.00
2019-04-29T10:56:53.395Z,19.14
2019-04-29T11:02:05.310Z,19.16
2019-04-29T11:07:19.099Z,19.11
2019-04-29T11:12:20.608Z,19.11
2019-04-29T11:17:25.547Z,19.10
2019-04-29T11:22:33.951Z,19.29
2019-04-29T11:27:48.714Z,19.41
2019-04-29T11:32:53.644Z,19.47
2019-04-29T11:37:59.851Z,19.48
2019-04-29T11:43:02.108Z,19.52
2019-04-29T11:48:05.701Z,19.43
2019-04-29T11:53:10.676Z,19.39
2019-04-29T11:58:24.233Z,19.46
2019-04-29T12:03:32.030Z,19.42
2019-04-29T12:08:35.385Z,19.44
2019-04-29T12:13:58.894Z,19.42
2019-04-29T12:19:08.583Z,19.47
2019-04-29T12:24:12.992Z,19.42
2019-04-29T12:29:18.183Z,19.45
2019-04-29T12:34:29.176Z,19.49
2019-04-29T12:39:49.020Z,19.47
2019-04-29T12:44:59.657Z,19.51
2019-04-29T12:50:03.033Z,19.45
2019-04-29T12:55:19.866Z,19.45
2019-04-29T13:00:14.013Z,19.44
2019-04-29T13:05:19.087Z,19.45
2019-04-29T13:10:24.019Z,19.43
2019-04-29T13:15:34.726Z,19.43
2019-04-29T13:20:41.523Z,19.47
2019-04-29T13:25:43.212Z,19.46
2019-04-29T13:30:46.898Z,19.45
2019-04-29T13:35:50.292Z,19.49
2019-04-29T13:41:11.926Z,19.45
2019-04-29T13:46:09.084Z,19.51
2019-04-29T13:51:36.016Z,19.52
2019-04-29T13:56:54.241Z,19.55
2019-04-29T14:01:58.321Z,19.55
2019-04-29T14:06:56.648Z,19.55
2019-04-29T14:12:01.398Z,19.66
2019-04-29T14:17:17.172Z,19.50
2019-04-29T14:22:03.442Z,19.49
2019-04-29T14:27:06.771Z,19.36
2019-04-29T14:32:10.099Z,19.29
2019-04-29T14:37:25.032Z,19.29
2019-04-29T14:42:32.013Z,19.34
2019-04-29T14:47:42.380Z,19.47
2019-04-29T14:52:49.513Z,19.48
2019-04-29T14:57:50.770Z,19.46
2019-04-29T15:02:55.811Z,19.44
2019-04-29T15:07:59.273Z,19.26
2019-04-29T15:13:20.147Z,19.47
2019-04-29T15:18:16.176Z,19.60
2019-04-29T15:23:28.367Z,19.90
2019-04-29T15:28:24.191Z,19.67
2019-04-29T15:33:30.632Z,19.61
2019-04-29T15:38:32.583Z,19.60
2019-04-29T15:43:47.250Z,19.71
2019-04-29T15:48:41.305Z,19.67
2019-04-29T15:53:44.698Z,19.73
2019-04-29T15:58:48.459Z,19.72
2019-04-29T16:03:54.840Z,19.69
2019-04-29T16:09:00.162Z,19.69
2019-04-29T16:14:09.577Z,19.69
2019-04-29T16:19:10.476Z,19.67
2019-04-29T16:24:26.334Z,19.74
2019-04-29T16:29:19.598Z,19.76
2019-04-29T16:34:23.617Z,19.76
2019-04-29T16:39:26.925Z,19.73
2019-04-29T16:44:36.025Z,19.74
2019-04-29T16:49:35.405Z,19.75
2019-04-29T16:54:38.749Z,19.74
2019-04-29T16:59:42.051Z,19.66
2019-04-29T17:04:45.738Z,19.52
2019-04-29T17:09:50.668Z,19.44
2019-04-29T17:15:03.976Z,19.53
2019-04-29T17:19:59.371Z,19.58
2019-04-29T17:25:02.920Z,19.57
2019-04-29T17:30:24.022Z,19.52
2019-04-29T17:35:29.444Z,19.44
2019-04-29T17:40:33.290Z,19.42
2019-04-29T17:45:38.272Z,19.46
2019-04-29T17:50:46.814Z,19.42
2019-04-29T17:55:49.961Z,19.42
2019-04-29T18:01:10.627Z,19.61
2019-04-29T18:06:24.218Z,19.64
2019-04-29T18:11:25.079Z,19.80
2019-04-29T18:16:30.121Z,19.68
2019-04-29T18:21:50.891Z,19.59
2019-04-29T18:26:58.564Z,19.82
2019-04-29T18:32:05.191Z,20.01
2019-04-29T18:37:07.056Z,20.08
2019-04-29T18:42:10.347Z,19.73
2019-04-29T18:47:21.971Z,19.51
2019-04-29T18:52:26.004Z,19.39
2019-04-29T18:57:30.089Z,19.42
2019-04-29T19:02:32.147Z,19.39
2019-04-29T19:07:37.257Z,19.52
2019-04-29T19:12:39.419Z,19.57
2019-04-29T19:17:42.829Z,19.53
2019-04-29T19:22:47.346Z,19.52
2019-04-29T19:27:50.780Z,19.50
2019-04-29T19:33:00.447Z,19.48
2019-04-29T19:37:59.166Z,19.50
2019-04-29T19:43:02.511Z,19.49
2019-04-29T19:48:06.026Z,19.49
2019-04-29T19:53:09.303Z,19.49
2019-04-29T19:58:13.488Z,19.50
2019-04-29T20:03:23.925Z,19.49
2019-04-29T20:08:41.300Z,19.50
2019-04-29T20:13:31.915Z,19.49
2019-04-29T20:18:40.460Z,19.47
2019-04-29T20:23:41.998Z,19.44
2019-04-29T20:28:45.957Z,19.40
2019-04-29T20:33:49.619Z,19.38
2019-04-29T20:38:53.170Z,19.36
2019-04-29T20:43:56.676Z,19.34
2019-04-29T20:49:01.830Z,19.31
2019-04-29T20:54:15.909Z,19.29
2019-04-29T20:59:15.512Z,19.30
2019-04-29T21:04:31.194Z,19.26
2019-04-29T21:09:28.797Z,19.31
2019-04-29T21:14:33.988Z,19.44
2019-04-29T21:19:36.408Z,19.46
2019-04-29T21:24:39.801Z,19.46
2019-04-29T21:29:43.142Z,19.46
2019-04-29T21:35:03.233Z,19.49
2019-04-29T21:40:14.793Z,19.48
2019-04-29T21:45:15.536Z,19.49
2019-04-29T21:50:20.133Z,19.49
2019-04-29T21:55:25.797Z,19.48
2019-04-29T22:00:28.608Z,19.48
2019-04-29T22:05:31.973Z,19.49
2019-04-29T22:10:36.798Z,19.48
2019-04-29T22:15:42.395Z,19.48
2019-04-29T22:20:45.288Z,19.48
2019-04-29T22:25:48.635Z,19.47
2019-04-29T22:30:54.699Z,19.45
2019-04-29T22:35:57.025Z,19.49
2019-04-29T22:41:01.992Z,19.46
2019-04-29T22:46:09.386Z,19.46
2019-04-29T22:51:17.091Z,19.45
2019-04-29T22:56:16.011Z,19.45
2019-04-29T23:01:19.480Z,19.45
2019-04-29T23:06:22.810Z,19.44
2019-04-29T23:11:26.311Z,19.44
2019-04-29T23:16:31.487Z,19.43
2019-04-29T23:21:50.965Z,19.43
2019-04-29T23:26:54.894Z,19.43
2019-04-29T23:31:59.613Z,19.41
2019-04-29T23:37:03.365Z,19.41
2019-04-29T23:42:12.022Z,19.39
2019-04-29T23:47:12.216Z,19.40
2019-04-29T23:52:15.982Z,19.41
2019-04-29T23:57:35.893Z,19.39
